Terminal Aerodrome Forecast
Issued by NWS

Home | Current Version | Previous Version | Text Only | Print | Product List | Glossary On
Versions: 1 2 3 4 5 6 7 8 9 10 11 12 13 14 15 16 17 18
000
FTUS42 KGSP 222320
TAFGMU
TAF
KGMU 222320Z 2300/2324 02006KT P6SM FEW035 SCT060 BKN250
      TEMPO 2302/2306 SCT003 OVC035
     FM230600 03004KT 4SM BR BKN003
     FM231000 04004KT 2SM BR BKN003
     FM231400 06004KT P6SM BKN015
     FM231800 10004KT P6SM SCT050=

USA.gov is the U.S. government's official web portal to all federal, state and local government web resources and services.